createdAt,value
2018-06-24T00:00:15.521Z,0.00
2018-06-24T00:01:15.510Z,0.00
2018-06-24T00:02:15.502Z,0.00
2018-06-24T00:03:15.495Z,0.00
2018-06-24T00:04:15.489Z,0.00
2018-06-24T00:05:15.483Z,0.00
2018-06-24T00:06:15.475Z,0.00
2018-06-24T00:07:15.471Z,0.00
2018-06-24T00:08:15.461Z,0.00
2018-06-24T00:09:15.454Z,0.00
2018-06-24T00:10:15.446Z,0.00
2018-06-24T00:11:15.441Z,0.00
2018-06-24T00:12:15.433Z,0.00
2018-06-24T00:13:15.426Z,0.00
2018-06-24T00:14:15.440Z,0.00
2018-06-24T00:15:15.411Z,0.00
2018-06-24T00:16:15.404Z,0.00
2018-06-24T00:17:15.399Z,0.00
2018-06-24T00:18:15.389Z,0.00
2018-06-24T00:19:15.386Z,0.00
2018-06-24T00:20:15.375Z,0.00
2018-06-24T00:21:15.368Z,0.00
2018-06-24T00:22:15.359Z,0.00
2018-06-24T00:23:15.352Z,0.00
2018-06-24T00:24:15.348Z,0.00
2018-06-24T00:25:15.338Z,0.00
2018-06-24T00:26:15.330Z,0.00
2018-06-24T00:27:15.323Z,0.00
2018-06-24T00:28:15.315Z,0.00
2018-06-24T00:29:15.308Z,0.00
2018-06-24T00:30:15.304Z,0.00
2018-06-24T00:31:15.293Z,0.00
2018-06-24T00:32:15.285Z,0.00
2018-06-24T00:33:15.278Z,0.00
2018-06-24T00:34:15.269Z,0.00
2018-06-24T00:35:15.262Z,0.00
2018-06-24T00:36:15.254Z,0.00
2018-06-24T00:37:15.262Z,0.00
2018-06-24T00:38:15.241Z,0.00
2018-06-24T00:39:15.230Z,0.00
2018-06-24T00:40:15.224Z,0.00
2018-06-24T00:41:15.215Z,0.00
2018-06-24T00:42:16.409Z,0.00
2018-06-24T00:43:15.200Z,0.00
2018-06-24T00:44:15.192Z,0.00
2018-06-24T00:45:15.184Z,0.00
2018-06-24T00:46:15.176Z,0.00
2018-06-24T00:47:15.167Z,0.00
2018-06-24T00:48:15.160Z,0.00
2018-06-24T00:49:15.152Z,0.00
2018-06-24T00:50:15.143Z,0.00
2018-06-24T00:51:15.135Z,0.00
2018-06-24T00:52:15.127Z,0.00
2018-06-24T00:53:15.119Z,0.00
2018-06-24T00:54:15.315Z,0.00
2018-06-24T00:55:15.103Z,0.00
2018-06-24T00:56:15.095Z,0.00
2018-06-24T00:57:15.088Z,0.00
2018-06-24T00:58:15.078Z,0.00
2018-06-24T00:59:15.073Z,0.00
2018-06-24T01:00:15.063Z,0.00
2018-06-24T01:01:15.056Z,0.00
2018-06-24T01:02:15.048Z,0.00
2018-06-24T01:03:15.040Z,0.00
2018-06-24T01:04:15.035Z,0.00
2018-06-24T01:05:15.026Z,0.00
2018-06-24T01:06:15.020Z,0.00
2018-06-24T01:07:15.009Z,0.00
2018-06-24T01:08:15.000Z,0.00
2018-06-24T01:09:14.996Z,0.00
2018-06-24T01:10:14.989Z,0.00
2018-06-24T01:11:14.980Z,0.00
2018-06-24T01:12:14.969Z,0.00
2018-06-24T01:13:14.962Z,0.00
2018-06-24T01:14:14.953Z,0.00
2018-06-24T01:15:14.946Z,0.00
2018-06-24T01:16:14.938Z,0.00
2018-06-24T01:17:14.930Z,0.00
2018-06-24T01:18:14.922Z,0.00
2018-06-24T01:19:14.915Z,0.00
2018-06-24T01:20:14.907Z,0.00
2018-06-24T01:21:14.903Z,0.00
2018-06-24T01:22:14.892Z,0.00
2018-06-24T01:23:14.884Z,0.00
2018-06-24T01:24:14.877Z,0.00
2018-06-24T01:25:14.869Z,0.00
2018-06-24T01:26:14.864Z,0.00
2018-06-24T01:27:14.854Z,0.00
2018-06-24T01:28:14.846Z,0.00
2018-06-24T01:29:14.839Z,0.00
2018-06-24T01:30:15.036Z,0.00
2018-06-24T01:31:14.823Z,0.00
2018-06-24T01:32:14.817Z,0.00
2018-06-24T01:33:14.808Z,0.00
2018-06-24T01:34:14.800Z,0.00
2018-06-24T01:35:14.794Z,0.00
2018-06-24T01:36:14.785Z,0.00
2018-06-24T01:37:14.778Z,0.00
2018-06-24T01:38:14.770Z,0.00
2018-06-24T01:39:14.762Z,0.00
2018-06-24T01:40:14.754Z,0.00
2018-06-24T01:41:14.751Z,0.00
2018-06-24T01:42:14.739Z,0.00
2018-06-24T01:43:14.731Z,0.00
2018-06-24T01:44:14.724Z,0.00
2018-06-24T01:45:14.721Z,0.00
2018-06-24T01:46:14.708Z,0.00
2018-06-24T01:47:14.700Z,0.00
2018-06-24T01:48:14.693Z,0.00
2018-06-24T01:49:14.687Z,0.00
2018-06-24T01:50:14.677Z,0.00
2018-06-24T01:51:14.669Z,0.00
2018-06-24T01:52:14.662Z,0.00
2018-06-24T01:53:14.654Z,0.00
2018-06-24T01:54:14.645Z,0.00
2018-06-24T01:55:14.637Z,0.00
2018-06-24T01:56:14.632Z,0.00
2018-06-24T01:57:14.622Z,0.00
2018-06-24T01:58:14.615Z,0.00
2018-06-24T01:59:14.606Z,0.00
2018-06-24T02:00:14.598Z,0.00
2018-06-24T02:01:14.590Z,0.00
2018-06-24T02:02:14.581Z,0.00
2018-06-24T02:03:14.573Z,0.00
2018-06-24T02:04:14.566Z,0.00
2018-06-24T02:05:14.565Z,0.00
2018-06-24T02:06:14.552Z,0.00
2018-06-24T02:07:14.542Z,0.00
2018-06-24T02:08:14.535Z,0.00
2018-06-24T02:09:14.528Z,0.00
2018-06-24T02:10:14.519Z,0.00
2018-06-24T02:11:14.511Z,0.00
2018-06-24T02:12:14.503Z,0.00
2018-06-24T02:13:14.496Z,0.00
2018-06-24T02:14:14.489Z,0.00
2018-06-24T02:15:14.480Z,0.00
2018-06-24T02:16:14.472Z,0.00
2018-06-24T02:17:14.465Z,0.00
2018-06-24T02:18:14.461Z,0.00
2018-06-24T02:19:14.448Z,0.00
2018-06-24T02:20:14.444Z,0.00
2018-06-24T02:21:14.436Z,0.00
2018-06-24T02:22:14.424Z,0.00
2018-06-24T02:23:14.417Z,0.00
2018-06-24T02:24:14.409Z,0.00
2018-06-24T02:25:14.401Z,0.00
2018-06-24T02:26:14.393Z,0.00
2018-06-24T02:27:14.385Z,0.00
2018-06-24T02:28:14.378Z,0.00
2018-06-24T02:29:14.371Z,0.00
2018-06-24T02:30:14.362Z,0.00
2018-06-24T02:31:14.354Z,0.00
2018-06-24T02:32:14.346Z,0.00
2018-06-24T02:33:14.342Z,0.00
2018-06-24T02:34:14.330Z,0.00
2018-06-24T02:35:14.323Z,0.00
2018-06-24T02:36:14.315Z,0.00
2018-06-24T02:37:14.308Z,0.00
2018-06-24T02:38:14.303Z,0.00
2018-06-24T02:39:14.292Z,0.00
2018-06-24T02:40:14.284Z,0.00
2018-06-24T02:41:14.280Z,0.00
2018-06-24T02:42:14.268Z,0.00
2018-06-24T02:43:14.260Z,0.00
2018-06-24T02:44:14.253Z,0.00
2018-06-24T02:45:14.245Z,0.00
2018-06-24T02:46:14.237Z,4.00
2018-06-24T02:47:14.229Z,4.00
2018-06-24T02:48:14.223Z,0.00
2018-06-24T02:49:14.215Z,4.00
2018-06-24T02:50:14.207Z,4.00
2018-06-24T02:51:14.200Z,4.00
2018-06-24T02:52:14.196Z,4.00
2018-06-24T02:53:14.184Z,4.00
2018-06-24T02:54:14.175Z,8.00
2018-06-24T02:55:14.167Z,4.00
2018-06-24T02:56:14.160Z,8.00
2018-06-24T02:57:14.155Z,8.00
2018-06-24T02:58:14.145Z,12.00
2018-06-24T02:59:14.136Z,12.00
2018-06-24T03:00:14.131Z,16.00
2018-06-24T03:01:14.122Z,16.00
2018-06-24T03:02:14.116Z,20.00
2018-06-24T03:03:14.106Z,24.00
2018-06-24T03:04:14.099Z,24.00
2018-06-24T03:05:14.098Z,28.00
2018-06-24T03:06:14.086Z,32.00
2018-06-24T03:07:14.075Z,40.00
2018-06-24T03:09:14.061Z,44.00
2018-06-24T03:10:14.053Z,52.00
2018-06-24T03:11:14.050Z,56.00
2018-06-24T03:12:14.037Z,60.00
2018-06-24T03:13:14.029Z,72.00
2018-06-24T03:14:14.022Z,76.00
2018-06-24T03:15:14.014Z,80.00
2018-06-24T03:16:14.007Z,88.00
2018-06-24T03:17:13.999Z,96.00
2018-06-24T03:18:13.997Z,104.00
2018-06-24T03:19:13.982Z,112.00
2018-06-24T03:20:13.974Z,120.00
2018-06-24T03:21:13.970Z,128.00
2018-06-24T03:22:13.957Z,140.00
2018-06-24T03:23:13.949Z,148.00
2018-06-24T03:24:13.942Z,160.00
2018-06-24T03:25:13.936Z,168.00
2018-06-24T03:26:13.926Z,180.00
2018-06-24T03:27:13.917Z,192.00
2018-06-24T03:28:13.913Z,200.00
2018-06-24T03:29:13.901Z,216.00
2018-06-24T03:30:13.893Z,224.00
2018-06-24T03:31:13.885Z,240.00
2018-06-24T03:32:13.877Z,252.00
2018-06-24T03:33:13.872Z,272.00
2018-06-24T03:34:13.863Z,284.00
2018-06-24T03:35:13.853Z,296.00
2018-06-24T03:36:13.851Z,312.00
2018-06-24T03:37:13.838Z,328.00
2018-06-24T03:38:13.832Z,348.00
2018-06-24T03:39:13.820Z,372.00
2018-06-24T03:40:13.820Z,388.00
2018-06-24T03:41:13.805Z,400.00
2018-06-24T03:42:13.796Z,416.00
2018-06-24T03:43:13.788Z,432.00
2018-06-24T03:44:13.780Z,448.00
2018-06-24T03:45:13.774Z,468.00
2018-06-24T03:46:13.768Z,492.00
2018-06-24T03:47:13.758Z,512.00
2018-06-24T03:48:13.748Z,548.00
2018-06-24T03:49:13.740Z,600.00
2018-06-24T03:50:13.733Z,656.00
2018-06-24T03:51:13.726Z,724.00
2018-06-24T03:52:13.718Z,824.00
2018-06-24T03:53:13.707Z,912.00
2018-06-24T03:54:13.706Z,988.00
2018-06-24T03:55:13.693Z,1076.00
2018-06-24T03:56:13.686Z,1152.00
2018-06-24T03:57:13.674Z,1216.00
2018-06-24T03:58:13.669Z,1260.00
2018-06-24T03:59:13.657Z,1284.00
2018-06-24T04:00:13.651Z,1304.00
2018-06-24T04:01:13.642Z,1336.00
2018-06-24T04:02:13.633Z,1388.00
2018-06-24T04:03:13.626Z,1456.00
2018-06-24T04:04:13.623Z,1520.00
2018-06-24T04:05:13.611Z,1592.00
2018-06-24T04:06:13.601Z,1640.00
2018-06-24T04:07:13.598Z,1680.00
2018-06-24T04:08:13.586Z,1728.00
2018-06-24T04:09:13.780Z,1796.00
2018-06-24T04:10:13.570Z,1824.00
2018-06-24T04:11:13.562Z,1840.00
2018-06-24T04:12:13.555Z,1876.00
2018-06-24T04:13:13.552Z,1896.00
2018-06-24T04:14:13.538Z,1804.00
2018-06-24T04:15:13.533Z,1644.00
2018-06-24T04:16:13.523Z,1476.00
2018-06-24T04:17:13.519Z,1356.00
2018-06-24T04:18:13.507Z,1332.00
2018-06-24T04:19:13.500Z,1384.00
2018-06-24T04:20:13.492Z,1452.00
2018-06-24T04:21:13.485Z,1580.00
2018-06-24T04:22:13.476Z,1756.00
2018-06-24T04:23:13.472Z,1824.00
2018-06-24T04:24:13.464Z,1880.00
2018-06-24T04:25:13.455Z,1896.00
2018-06-24T04:26:13.445Z,2024.00
2018-06-24T04:27:13.438Z,2188.00
2018-06-24T04:28:13.434Z,2368.00
2018-06-24T04:29:13.422Z,2468.00
2018-06-24T04:30:13.418Z,2628.00
2018-06-24T04:31:13.406Z,2780.00
2018-06-24T04:32:13.400Z,2952.00
2018-06-24T04:33:13.392Z,3120.00
2018-06-24T04:34:13.587Z,3260.00
2018-06-24T04:35:13.579Z,3392.00
2018-06-24T04:36:13.370Z,3492.00
2018-06-24T04:37:13.362Z,3604.00
2018-06-24T04:38:13.360Z,3656.00
2018-06-24T04:39:13.347Z,3516.00
2018-06-24T04:40:13.339Z,3480.00
2018-06-24T04:41:13.332Z,3660.00
2018-06-24T04:42:13.324Z,4476.00
2018-06-24T04:43:13.318Z,4752.00
2018-06-24T04:44:13.311Z,4032.00
2018-06-24T04:45:13.305Z,3508.00
2018-06-24T04:46:13.294Z,3300.00
2018-06-24T04:47:13.291Z,3332.00
2018-06-24T04:48:13.280Z,3436.00
2018-06-24T04:49:13.275Z,3640.00
2018-06-24T04:50:13.264Z,3704.00
2018-06-24T04:51:13.258Z,4568.00
2018-06-24T04:52:13.455Z,5856.00
2018-06-24T04:53:13.451Z,6020.00
2018-06-24T04:54:13.235Z,4588.00
2018-06-24T04:55:13.232Z,4364.00
2018-06-24T04:56:13.220Z,4016.00
2018-06-24T04:57:13.216Z,3868.00
2018-06-24T04:58:13.205Z,3648.00
2018-06-24T04:59:13.201Z,3420.00
2018-06-24T05:00:13.191Z,3320.00
2018-06-24T05:01:13.183Z,3156.00
2018-06-24T05:02:13.175Z,2988.00
2018-06-24T05:03:13.171Z,2848.00
2018-06-24T05:04:13.160Z,2740.00
2018-06-24T05:05:13.154Z,2636.00
2018-06-24T05:06:13.144Z,2680.00
2018-06-24T05:07:13.141Z,2788.00
2018-06-24T05:08:13.130Z,2952.00
2018-06-24T05:09:13.129Z,3136.00
2018-06-24T05:10:13.120Z,3512.00
2018-06-24T05:11:13.108Z,3772.00
2018-06-24T05:12:13.106Z,3984.00
2018-06-24T05:13:13.098Z,4288.00
2018-06-24T05:14:13.086Z,5044.00
2018-06-24T05:15:13.080Z,5628.00
2018-06-24T05:16:13.071Z,6148.00
2018-06-24T05:17:13.067Z,6620.00
2018-06-24T05:18:13.055Z,6828.00
2018-06-24T05:19:13.053Z,6544.00
2018-06-24T05:20:13.041Z,6400.00
2018-06-24T05:21:13.035Z,6392.00
2018-06-24T05:22:13.037Z,7088.00
2018-06-24T05:23:13.020Z,6928.00
2018-06-24T05:24:13.017Z,7468.00
2018-06-24T05:25:13.007Z,9380.00
2018-06-24T05:26:12.999Z,8908.00
2018-06-24T05:27:12.993Z,8452.00
2018-06-24T05:28:12.986Z,8832.00
2018-06-24T05:29:12.979Z,9288.00
2018-06-24T05:30:12.978Z,9444.00
2018-06-24T05:31:12.971Z,9060.00
2018-06-24T05:32:12.959Z,8764.00
2018-06-24T05:33:12.954Z,7636.00
2018-06-24T05:34:12.946Z,8904.00
2018-06-24T05:35:12.940Z,7340.00
2018-06-24T05:36:12.934Z,7760.00
2018-06-24T05:37:12.927Z,7176.00
2018-06-24T05:38:12.923Z,6620.00
2018-06-24T05:39:13.122Z,6648.00
2018-06-24T05:40:13.114Z,7128.00
2018-06-24T05:41:12.904Z,7456.00
2018-06-24T05:42:12.898Z,6400.00
2018-06-24T05:43:12.889Z,5432.00
2018-06-24T05:44:12.885Z,5012.00
2018-06-24T05:45:12.875Z,5128.00
2018-06-24T05:46:12.868Z,5016.00
2018-06-24T05:47:12.864Z,5164.00
2018-06-24T05:48:12.856Z,5116.00
2018-06-24T05:49:12.850Z,4596.00
2018-06-24T05:50:12.847Z,5004.00
2018-06-24T05:51:12.835Z,5244.00
2018-06-24T05:52:12.832Z,4904.00
2018-06-24T05:53:12.823Z,5028.00
2018-06-24T05:54:12.879Z,5040.00
2018-06-24T05:55:12.811Z,4848.00
2018-06-24T05:56:12.803Z,4424.00
2018-06-24T05:57:12.797Z,4048.00
2018-06-24T05:58:12.792Z,3736.00
2018-06-24T05:59:12.990Z,3872.00
2018-06-24T06:00:12.783Z,4300.00
2018-06-24T06:01:12.771Z,5296.00
2018-06-24T06:02:12.763Z,6216.00
2018-06-24T06:03:12.760Z,6040.00
2018-06-24T06:04:12.752Z,5616.00
2018-06-24T06:05:12.746Z,5520.00
2018-06-24T06:06:12.738Z,6384.00
2018-06-24T06:07:12.733Z,5784.00
2018-06-24T06:08:12.724Z,5416.00
2018-06-24T06:09:12.720Z,4880.00
2018-06-24T06:10:12.747Z,5792.00
2018-06-24T06:11:12.710Z,5936.00
2018-06-24T06:12:12.705Z,6452.00
2018-06-24T06:13:12.694Z,8120.00
2018-06-24T06:14:12.687Z,8664.00
2018-06-24T06:15:12.688Z,9104.00
2018-06-24T06:16:12.728Z,8256.00
2018-06-24T06:17:12.668Z,8488.00
2018-06-24T06:18:12.662Z,9584.00
2018-06-24T06:19:12.661Z,10580.00
2018-06-24T06:20:12.646Z,10548.00
2018-06-24T06:21:12.645Z,10752.00
2018-06-24T06:22:12.637Z,10832.00
2018-06-24T06:23:12.628Z,10776.00
2018-06-24T06:24:12.621Z,12536.00
2018-06-24T06:25:12.616Z,11472.00
2018-06-24T06:26:12.609Z,11704.00
2018-06-24T06:27:12.607Z,11556.00
2018-06-24T06:28:12.605Z,12184.00
2018-06-24T06:29:12.592Z,14360.00
2018-06-24T06:30:12.594Z,17024.00
2018-06-24T06:31:12.584Z,15524.00
2018-06-24T06:32:12.574Z,13844.00
2018-06-24T06:33:12.569Z,15224.00
2018-06-24T06:34:12.570Z,15144.00
2018-06-24T06:35:12.561Z,13276.00
2018-06-24T06:36:12.552Z,13092.00
2018-06-24T06:37:12.547Z,11044.00
2018-06-24T06:38:12.541Z,10628.00
2018-06-24T06:39:12.536Z,9920.00
2018-06-24T06:40:12.531Z,11288.00
2018-06-24T06:41:12.527Z,13680.00
2018-06-24T06:42:12.521Z,13952.00
2018-06-24T06:43:12.515Z,12576.00
2018-06-24T06:44:12.511Z,12544.00
2018-06-24T06:45:12.561Z,12548.00
2018-06-24T06:46:12.500Z,13000.00
2018-06-24T06:47:12.497Z,14476.00
2018-06-24T06:48:12.490Z,13548.00
2018-06-24T06:49:12.493Z,15068.00
2018-06-24T06:50:12.482Z,15636.00
2018-06-24T06:51:12.559Z,15080.00
2018-06-24T06:52:12.469Z,13192.00
2018-06-24T06:53:12.468Z,12600.00
2018-06-24T06:54:12.464Z,11892.00
2018-06-24T06:55:12.455Z,9688.00
2018-06-24T06:56:12.449Z,8808.00
2018-06-24T06:57:12.445Z,9276.00
2018-06-24T06:58:12.439Z,12008.00
2018-06-24T06:59:12.438Z,14464.00
2018-06-24T07:00:12.500Z,14504.00
2018-06-24T07:01:12.425Z,12556.00
2018-06-24T07:02:12.421Z,11884.00
2018-06-24T07:03:12.617Z,12316.00
2018-06-24T07:04:12.409Z,11296.00
2018-06-24T07:05:12.405Z,10668.00
2018-06-24T07:06:12.402Z,9832.00
2018-06-24T07:07:12.397Z,8712.00
2018-06-24T07:08:12.393Z,7732.00
2018-06-24T07:09:12.387Z,6904.00
2018-06-24T07:10:12.380Z,6980.00
2018-06-24T07:11:12.375Z,6584.00
2018-06-24T07:12:12.376Z,6388.00
2018-06-24T07:13:12.367Z,5964.00
2018-06-24T07:14:12.364Z,6364.00
2018-06-24T07:15:12.357Z,6660.00
2018-06-24T07:16:12.350Z,7580.00
2018-06-24T07:17:12.350Z,7708.00
2018-06-24T07:18:12.344Z,6272.00
2018-06-24T07:19:12.336Z,5896.00
2018-06-24T07:20:12.331Z,5720.00
2018-06-24T07:21:12.330Z,7272.00
2018-06-24T07:22:12.378Z,8792.00
2018-06-24T07:23:12.315Z,9876.00
2018-06-24T07:24:12.310Z,11652.00
2018-06-24T07:25:12.301Z,14240.00
2018-06-24T07:26:12.295Z,12468.00
2018-06-24T07:27:12.295Z,10840.00
2018-06-24T07:28:12.286Z,9280.00
2018-06-24T07:29:12.280Z,8748.00
2018-06-24T07:30:12.281Z,6616.00
2018-06-24T07:31:12.269Z,5324.00
2018-06-24T07:32:12.267Z,4760.00
2018-06-24T07:33:12.290Z,4364.00
2018-06-24T07:34:12.252Z,4276.00
2018-06-24T07:35:12.248Z,4428.00
2018-06-24T07:36:12.245Z,4648.00
2018-06-24T07:37:12.236Z,5084.00
2018-06-24T07:38:12.229Z,5104.00
2018-06-24T07:39:12.265Z,4496.00
2018-06-24T07:40:12.218Z,4224.00
2018-06-24T07:41:12.213Z,4472.00
2018-06-24T07:42:12.206Z,4824.00
2018-06-24T07:43:12.201Z,4696.00
2018-06-24T07:44:12.195Z,4236.00
2018-06-24T07:45:12.189Z,3704.00
2018-06-24T07:46:12.185Z,3596.00
2018-06-24T07:47:12.177Z,3636.00
2018-06-24T07:48:12.176Z,3568.00
2018-06-24T07:49:12.169Z,3612.00
2018-06-24T07:50:12.183Z,3980.00
2018-06-24T07:51:12.163Z,4884.00
2018-06-24T07:52:12.151Z,6292.00
2018-06-24T07:53:12.141Z,6836.00
2018-06-24T07:54:12.134Z,7432.00
2018-06-24T07:55:12.336Z,8392.00
2018-06-24T07:56:12.125Z,11132.00
2018-06-24T07:57:12.117Z,12452.00
2018-06-24T07:58:12.115Z,10288.00
2018-06-24T07:59:12.108Z,7776.00
2018-06-24T08:00:12.098Z,7868.00
2018-06-24T08:01:12.093Z,9144.00
2018-06-24T08:02:12.088Z,11252.00
2018-06-24T08:03:12.091Z,14244.00
2018-06-24T08:04:12.075Z,16168.00
2018-06-24T08:05:12.075Z,16832.00
2018-06-24T08:06:12.065Z,17504.00
2018-06-24T08:07:12.058Z,17600.00
2018-06-24T08:08:12.055Z,18400.00
2018-06-24T08:09:12.105Z,19552.00
2018-06-24T08:10:12.045Z,19584.00
2018-06-24T08:11:12.108Z,19072.00
2018-06-24T08:12:12.037Z,18720.00
2018-06-24T08:13:12.028Z,18688.00
2018-06-24T08:14:12.025Z,18336.00
2018-06-24T08:15:12.019Z,17536.00
2018-06-24T08:16:12.015Z,15956.00
2018-06-24T08:17:12.014Z,14600.00
2018-06-24T08:18:12.009Z,13084.00
2018-06-24T08:19:12.005Z,10980.00
2018-06-24T08:20:12.044Z,9684.00
2018-06-24T08:22:11.989Z,8832.00
2018-06-24T08:23:11.986Z,9040.00
2018-06-24T08:24:11.982Z,10948.00
2018-06-24T08:25:11.979Z,12696.00
2018-06-24T08:26:11.982Z,13604.00
2018-06-24T08:27:11.970Z,14296.00
2018-06-24T08:28:11.966Z,14820.00
2018-06-24T08:29:11.965Z,14656.00
2018-06-24T08:30:11.957Z,14312.00
2018-06-24T08:31:11.959Z,14020.00
2018-06-24T08:32:11.951Z,13020.00
2018-06-24T08:33:11.953Z,11716.00
2018-06-24T08:34:11.941Z,11372.00
2018-06-24T08:35:11.938Z,12660.00
2018-06-24T08:36:12.084Z,14328.00
2018-06-24T08:37:11.952Z,16768.00
2018-06-24T08:38:11.930Z,18400.00
2018-06-24T08:39:11.926Z,17920.00
2018-06-24T08:40:11.918Z,16384.00
2018-06-24T08:41:11.920Z,13708.00
2018-06-24T08:42:11.910Z,11196.00
2018-06-24T08:43:11.907Z,9104.00
2018-06-24T08:44:11.906Z,8888.00
2018-06-24T08:45:11.899Z,10928.00
2018-06-24T08:46:11.905Z,13544.00
2018-06-24T08:47:11.947Z,16928.00
2018-06-24T08:48:11.887Z,20416.00
2018-06-24T08:49:11.884Z,23520.00
2018-06-24T08:50:11.883Z,25472.00
2018-06-24T08:51:11.880Z,26624.00
2018-06-24T08:52:11.876Z,27072.00
2018-06-24T08:53:11.870Z,27584.00
2018-06-24T08:54:11.873Z,26240.00
2018-06-24T08:55:11.863Z,24640.00
2018-06-24T08:56:11.865Z,24288.00
2018-06-24T08:57:11.861Z,25280.00
2018-06-24T08:58:11.864Z,25280.00
2018-06-24T08:59:11.854Z,25376.00
2018-06-24T09:00:11.855Z,26080.00
2018-06-24T09:01:11.850Z,26752.00
2018-06-24T09:02:11.850Z,27168.00
2018-06-24T09:03:11.848Z,27328.00
2018-06-24T09:04:11.843Z,25088.00
2018-06-24T09:05:11.846Z,22144.00
2018-06-24T09:06:11.840Z,18848.00
2018-06-24T09:07:11.838Z,18432.00
2018-06-24T09:08:11.935Z,18976.00
2018-06-24T09:09:11.836Z,18048.00
2018-06-24T09:10:11.836Z,16480.00
2018-06-24T09:11:11.832Z,15024.00
2018-06-24T09:12:11.830Z,16288.00
2018-06-24T09:13:11.828Z,17888.00
2018-06-24T09:14:11.829Z,19040.00
2018-06-24T09:15:11.880Z,18848.00
2018-06-24T09:16:11.825Z,17312.00
2018-06-24T09:17:11.824Z,15964.00
2018-06-24T09:18:11.821Z,16768.00
2018-06-24T09:19:11.816Z,18112.00
2018-06-24T09:20:11.815Z,17824.00
2018-06-24T09:21:12.020Z,16864.00
2018-06-24T09:22:11.819Z,15404.00
2018-06-24T09:23:11.808Z,16576.00
2018-06-24T09:24:11.809Z,19264.00
2018-06-24T09:25:11.805Z,21664.00
2018-06-24T09:26:11.802Z,22976.00
2018-06-24T09:27:11.801Z,22528.00
2018-06-24T09:28:11.798Z,20480.00
2018-06-24T09:29:11.801Z,18272.00
2018-06-24T09:30:11.798Z,15520.00
2018-06-24T09:31:11.793Z,12980.00
2018-06-24T09:32:11.791Z,11700.00
2018-06-24T09:33:11.791Z,11772.00
2018-06-24T09:34:11.792Z,13464.00
2018-06-24T09:35:11.787Z,15672.00
2018-06-24T09:36:11.787Z,18176.00
2018-06-24T09:37:11.785Z,19904.00
2018-06-24T09:38:11.779Z,20992.00
2018-06-24T09:39:11.778Z,23008.00
2018-06-24T09:40:11.775Z,28480.00
2018-06-24T09:41:11.774Z,27520.00
2018-06-24T09:42:11.771Z,22912.00
2018-06-24T09:43:11.770Z,21504.00
2018-06-24T09:44:11.769Z,19840.00
2018-06-24T09:45:11.970Z,19232.00
2018-06-24T09:46:11.765Z,19712.00
2018-06-24T09:47:11.765Z,21408.00
2018-06-24T09:48:11.763Z,21824.00
2018-06-24T09:49:11.763Z,22112.00
2018-06-24T09:50:11.765Z,23136.00
2018-06-24T09:51:11.760Z,22976.00
2018-06-24T09:52:11.759Z,21664.00
2018-06-24T09:53:11.762Z,20448.00
2018-06-24T09:54:11.766Z,20000.00
2018-06-24T09:55:11.759Z,18688.00
2018-06-24T09:56:11.755Z,17696.00
2018-06-24T09:57:11.754Z,17600.00
2018-06-24T09:58:11.752Z,19296.00
2018-06-24T09:59:11.757Z,21824.00
2018-06-24T10:00:11.751Z,25632.00
2018-06-24T10:01:11.755Z,27392.00
2018-06-24T10:02:11.748Z,31936.00
2018-06-24T10:03:11.901Z,33248.00
2018-06-24T10:04:11.746Z,32704.00
2018-06-24T10:05:11.747Z,34272.00
2018-06-24T10:06:11.748Z,29632.00
2018-06-24T10:07:11.748Z,25760.00
2018-06-24T10:08:11.743Z,21152.00
2018-06-24T10:09:11.950Z,18688.00
2018-06-24T10:10:11.947Z,17152.00
2018-06-24T10:11:11.746Z,17216.00
2018-06-24T10:12:11.793Z,18464.00
2018-06-24T10:13:11.745Z,20192.00
2018-06-24T10:14:11.741Z,22176.00
2018-06-24T10:15:11.744Z,24704.00
2018-06-24T10:16:11.739Z,25216.00
2018-06-24T10:17:11.945Z,25504.00
2018-06-24T10:18:11.737Z,25920.00
2018-06-24T10:19:11.736Z,26912.00
2018-06-24T10:20:11.787Z,25312.00
2018-06-24T10:21:11.736Z,24384.00
2018-06-24T10:22:11.734Z,26208.00
2018-06-24T10:23:11.733Z,27616.00
2018-06-24T10:24:11.733Z,30496.00
2018-06-24T10:25:11.936Z,29984.00
2018-06-24T10:26:11.742Z,30400.00
2018-06-24T10:27:11.733Z,28960.00
2018-06-24T10:28:11.734Z,29408.00
2018-06-24T10:29:11.734Z,27744.00
2018-06-24T10:30:11.732Z,33120.00
2018-06-24T10:32:11.732Z,23680.00
2018-06-24T10:33:11.935Z,22112.00
2018-06-24T10:34:11.732Z,22208.00
2018-06-24T10:35:11.735Z,22720.00
2018-06-24T10:36:11.734Z,24992.00
2018-06-24T10:37:11.735Z,26368.00
2018-06-24T10:38:11.739Z,33408.00
2018-06-24T10:39:11.743Z,47328.00
2018-06-24T10:40:11.737Z,54912.00
2018-06-24T10:41:11.804Z,62080.00
2018-06-24T10:42:11.739Z,46656.00
2018-06-24T10:43:11.744Z,32736.00
2018-06-24T10:44:11.744Z,60288.00
2018-06-24T10:45:11.744Z,61312.00
2018-06-24T10:46:11.749Z,55712.00
2018-06-24T10:47:11.748Z,50560.00
2018-06-24T10:48:11.754Z,26976.00
2018-06-24T10:49:11.757Z,22336.00
2018-06-24T10:50:11.758Z,21312.00
2018-06-24T10:51:11.762Z,19872.00
2018-06-24T10:52:11.770Z,20096.00
2018-06-24T10:53:11.770Z,21888.00
2018-06-24T10:54:11.774Z,23296.00
2018-06-24T10:55:11.773Z,23360.00
2018-06-24T10:57:11.779Z,56896.00
2018-06-24T10:58:11.784Z,57600.00
2018-06-24T10:59:11.783Z,52832.00
2018-06-24T11:01:11.789Z,52736.00
2018-06-24T11:02:11.852Z,50464.00
2018-06-24T11:03:11.798Z,50208.00
2018-06-24T11:04:11.801Z,50400.00
2018-06-24T11:05:11.805Z,57280.00
2018-06-24T11:06:12.019Z,59904.00
2018-06-24T11:07:11.820Z,54816.00
2018-06-24T11:08:11.822Z,29120.00
2018-06-24T11:09:11.833Z,34240.00
2018-06-24T11:10:11.838Z,27616.00
2018-06-24T11:11:11.839Z,17376.00
2018-06-24T11:12:11.845Z,14244.00
2018-06-24T11:13:11.851Z,12448.00
2018-06-24T11:14:11.861Z,11852.00
2018-06-24T11:15:11.860Z,12828.00
2018-06-24T11:16:11.863Z,14760.00
2018-06-24T11:17:11.869Z,16256.00
2018-06-24T11:18:12.072Z,18976.00
2018-06-24T11:19:11.873Z,22400.00
2018-06-24T11:20:11.876Z,25312.00
2018-06-24T11:21:11.882Z,40928.00
2018-06-24T11:23:11.883Z,42912.00
2018-06-24T11:24:11.885Z,47040.00
2018-06-24T11:25:11.892Z,53056.00
2018-06-24T11:26:11.895Z,52384.00
2018-06-24T11:27:11.895Z,54080.00
2018-06-24T11:28:11.899Z,44320.00
2018-06-24T11:29:11.905Z,32448.00
2018-06-24T11:30:11.911Z,18944.00
2018-06-24T11:31:12.117Z,15968.00
2018-06-24T11:32:11.920Z,14884.00
2018-06-24T11:33:11.927Z,16320.00
2018-06-24T11:34:11.936Z,17632.00
2018-06-24T11:35:11.978Z,20960.00
2018-06-24T11:36:11.936Z,24000.00
2018-06-24T11:37:11.941Z,38400.00
2018-06-24T11:38:11.942Z,40736.00
2018-06-24T11:39:11.945Z,44320.00
2018-06-24T11:40:11.955Z,47616.00
2018-06-24T11:41:11.955Z,47776.00
2018-06-24T11:42:11.956Z,54848.00
2018-06-24T11:43:11.959Z,48288.00
2018-06-24T11:44:11.967Z,45536.00
2018-06-24T11:45:11.970Z,52992.00
2018-06-24T11:46:11.975Z,48992.00
2018-06-24T11:47:11.981Z,30528.00
2018-06-24T11:48:11.987Z,33664.00
2018-06-24T11:49:11.994Z,38752.00
2018-06-24T11:50:11.999Z,41216.00
2018-06-24T11:51:12.006Z,42496.00
2018-06-24T11:52:12.015Z,48480.00
2018-06-24T11:53:12.019Z,55040.00
2018-06-24T11:54:12.025Z,51040.00
2018-06-24T11:55:12.033Z,51712.00
2018-06-24T11:56:12.041Z,50848.00
2018-06-24T11:57:12.048Z,51328.00
2018-06-24T11:58:12.057Z,35264.00
2018-06-24T11:59:12.062Z,43616.00
2018-06-24T12:00:12.285Z,48032.00
2018-06-24T12:01:12.079Z,30688.00
2018-06-24T12:02:12.086Z,38848.00
2018-06-24T12:03:12.498Z,47808.00
2018-06-24T12:04:12.177Z,48800.00
2018-06-24T12:05:12.110Z,48640.00
2018-06-24T12:06:12.122Z,47296.00
2018-06-24T12:07:12.130Z,55232.00
2018-06-24T12:08:12.338Z,59488.00
2018-06-24T12:09:12.143Z,52832.00
2018-06-24T12:10:12.158Z,47680.00
2018-06-24T12:11:12.159Z,49824.00
2018-06-24T12:12:12.168Z,55808.00
2018-06-24T12:13:12.378Z,43392.00
2018-06-24T12:14:12.187Z,54272.00
2018-06-24T12:15:12.395Z,48768.00
2018-06-24T12:16:12.207Z,45728.00
2018-06-24T12:17:12.412Z,45568.00
2018-06-24T12:18:12.271Z,38464.00
2018-06-24T12:19:12.227Z,44608.00
2018-06-24T12:20:12.237Z,46336.00
2018-06-24T12:21:12.246Z,47584.00